Stations météo

Publicité
Bourg-St-Maurice, France (7497): Température de l'air & dewpoint: 03.12.2019 13:00:00 - 09.12.2019 13:00:00 (CET)Bourg-St-Maurice, France (7497): Température de l'air -20cm & Température de l'air -100cm: 03.12.2019 13:00:00 - 09.12.2019 13:00:00 (CET)Bourg-St-Maurice, France (7497): Vitesse du vent & gusts: 03.12.2019 13:00:00 - 09.12.2019 13:00:00 (CET)Bourg-St-Maurice, France (7497): Direction du vent: 03.12.2019 13:00:00 - 09.12.2019 13:00:00 (CET)Bourg-St-Maurice, France (7497): Ensoleillement: 03.12.2019 13:00:00 - 09.12.2019 13:00:00 (CET)Bourg-St-Maurice, France (7497): Quantités de précipitations: 03.12.2019 13:00:00 - 09.12.2019 13:00:00 (CET)
Date & Time tt [°C] td [°C] tt -20cm [°C] tt -100cm [°C] ff [km/h] ff [knt] fx [km/h] fx [knt] dd sd [min] rr [mm]
09.12.2019 13:00:00 1,9 1,2 4,0 8,5 10 5 23 13 SSW 0 0,8
09.12.2019 12:00:00 2,4 1,5 4,0 8,5 5 3 21 11 SSW 0 0,4
09.12.2019 11:00:00 2,8 2,1 3,9 8,5 0 0 13 7 N 0 0,2
09.12.2019 10:00:00 2,3 1,7 3,9 8,5 2 1 10 5 SE 0 0,4
09.12.2019 09:00:00 1,9 1,3 4,0 8,5 4 2 15 8 W 0 1,6
09.12.2019 08:00:00 2,2 1,6 4,0 8,5 5 3 14 8 SW 0 0,4
09.12.2019 07:00:00 2,0 1,3 4,0 8,5 4 2 11 6 SSE 0 0,0
09.12.2019 06:00:00 1,6 0,9 4,1 8,5 5 3 16 8 SSW 0 0,2
09.12.2019 05:00:00 1,4 0,5 4,0 8,5 2 1 8 5 S 0 0,6
09.12.2019 04:00:00 1,9 0,6 4,1 8,5 4 2 12 6 SW 0 0,4
09.12.2019 03:00:00 1,8 0,0 4,1 8,5 4 2 12 6 NNW 0 0,0
09.12.2019 02:00:00 2,5 -0,4 4,1 8,5 4 2 11 6 WSW 0 0,0
09.12.2019 01:00:00 2,5 -0,6 4,1 8,5 8 4 11 6 N 0 0,0
09.12.2019 00:00:00 2,8 -0,7 4,2 8,5 0 0 13 7 N 0 0,2
08.12.2019 23:00:00 2,6 -1,6 4,2 8,6 3 1 7 4 SSW 0 0,0
08.12.2019 22:00:00 3,4 -2,8 4,3 8,6 4 2 9 5 N 0 0,0
08.12.2019 21:00:00 2,1 -2,6 4,3 8,6 3 1 6 4 NE 0 0,0
08.12.2019 20:00:00 1,5 -3,0 4,4 8,6 4 2 7 4 NNE 0 0,0
08.12.2019 19:00:00 2,1 -2,6 4,4 8,6 0 0 4 2 N 0 0,0
08.12.2019 18:00:00 3,7 -3,4 4,4 8,6 4 2 11 6 NNW 0 0,0
08.12.2019 17:00:00 4,2 -2,4 4,3 8,6 0 0 10 6 N 5 0,0
08.12.2019 16:00:00 6,1 -3,8 4,1 8,6 6 3 9 5 NNW 48 0,0
08.12.2019 15:00:00 8,7 -1,2 3,9 8,6 2 1 7 4 WNW 60 0,0
08.12.2019 14:00:00 9,8 -5,0 3,7 8,6 4 2 13 7 S 60 0,0
08.12.2019 13:00:00 9,8 -4,2 3,6 8,6 5 3 12 7 SSE 60 0,0
08.12.2019 12:00:00 5,3 -5,1 3,6 8,6 4 2 6 4 N 60 0,0
08.12.2019 11:00:00 4,2 -2,0 3,7 8,6 2 1 6 3 ENE 60 0,0
08.12.2019 10:00:00 -1,0 -4,4 3,8 8,6 2 1 6 3 NNE 0 0,0
08.12.2019 09:00:00 -1,6 -4,9 3,9 8,6 5 3 8 5 N 0 0,0
08.12.2019 08:00:00 -1,6 -4,8 4,0 8,6 8 4 11 6 N 0 0,0
08.12.2019 07:00:00 -2,0 -4,5 4,1 8,6 3 2 8 5 N 0 0,0
08.12.2019 06:00:00 -0,7 -3,9 4,2 8,6 7 4 11 6 NW 0 0,0
08.12.2019 05:00:00 -1,1 -3,1 4,3 8,6 0 0 6 3 N 0 0,0
08.12.2019 04:00:00 -1,1 -3,3 4,5 8,7 2 1 6 4 N 0 0,0
08.12.2019 03:00:00 -0,7 -2,8 4,6 8,7 5 3 7 4 N 0 0,0
08.12.2019 02:00:00 0,1 -2,3 4,7 8,7 4 2 8 4 N 0 0,0
08.12.2019 01:00:00 0,1 -1,8 4,8 8,7 0 0 5 3 N 0 0,0
08.12.2019 00:00:00 0,4 -1,7 4,9 8,7 0 0 6 3 N 0 0,0
07.12.2019 23:00:00 1,2 -1,4 5,0 8,7 4 2 10 5 N 0 0,0
07.12.2019 22:00:00 1,5 -0,9 5,1 8,7 0 0 7 4 N 0 0,0
07.12.2019 21:00:00 2,4 -0,7 5,2 8,7 4 2 8 5 NW 0 0,0
07.12.2019 20:00:00 3,0 -0,5 5,3 8,7 2 1 8 4 N 0 0,0
07.12.2019 19:00:00 3,7 0,2 5,3 8,7 5 3 8 4 NNW 0 0,0
07.12.2019 18:00:00 4,5 0,6 5,3 8,7 5 3 8 4 N 0 0,0
07.12.2019 17:00:00 5,9 0,6 5,2 8,7 4 2 6 4 NNW 0 0,0
07.12.2019 16:00:00 7,4 1,0 4,9 8,7 3 2 7 4 W 49 0,0
07.12.2019 15:00:00 10,8 0,5 4,7 8,8 2 1 7 4 W 60 0,0
07.12.2019 14:00:00 13,2 0,9 4,4 8,7 5 3 11 6 SSW 60 0,0
07.12.2019 13:00:00 12,5 0,9 4,1 8,8 3 2 6 4 E 60 0,0
07.12.2019 12:00:00 11,0 1,0 3,9 8,7 3 2 8 5 E 55 0,0
07.12.2019 11:00:00 9,4 1,3 3,9 8,8 4 2 9 5 S 38 0,0
07.12.2019 10:00:00 5,4 1,3 3,8 8,8 2 1 7 4 N 17 0,0
07.12.2019 09:00:00 4,4 0,4 3,8 8,8 2 1 5 3 N 0 0,0
07.12.2019 08:00:00 4,0 0,5 3,8 8,8 0 0 5 3 N 0 0,0
07.12.2019 07:00:00 4,3 0,4 3,8 8,8 0 0 6 3 N 0 0,0
07.12.2019 06:00:00 4,3 -0,7 3,8 8,8 3 2 8 4 NW 0 0,0
07.12.2019 05:00:00 3,7 -0,9 3,8 8,9 3 1 9 5 NNE 0 0,0
07.12.2019 04:00:00 4,0 -0,6 3,8 8,8 3 2 9 5 WSW 0 0,0
07.12.2019 03:00:00 4,9 -2,0 3,8 8,9 4 2 11 6 N 0 0,0
07.12.2019 02:00:00 3,9 -1,3 3,8 8,9 6 3 10 6 NNE 0 0,0
07.12.2019 01:00:00 3,6 -1,2 3,7 8,9 0 0 8 4 N 0 0,0
07.12.2019 00:00:00 4,3 -2,1 3,7 8,9 3 1 8 4 NNW 0 0,0
06.12.2019 23:00:00 3,7 -1,9 3,8 8,9 4 2 7 4 N 0 0,0
06.12.2019 22:00:00 3,8 -2,6 3,8 8,9 5 3 7 4 NNW 0 0,0
06.12.2019 21:00:00 3,5 -2,7 3,7 8,9 4 2 7 4 SSW 0 0,0
06.12.2019 20:00:00 3,9 -3,6 3,7 8,9 3 2 5 3 N 0 0,0
06.12.2019 19:00:00 4,4 -3,4 3,7 8,9 4 2 6 4 NW 0 0,0
06.12.2019 18:00:00 3,8 -3,9 3,7 9,0 4 2 11 6 N 0 0,0
06.12.2019 17:00:00 4,7 -4,6 3,6 9,0 4 2 8 5 N 0 0,0
06.12.2019 16:00:00 6,6 -4,8 3,4 9,0 7 4 14 8 N 48 0,0
06.12.2019 15:00:00 8,4 -5,1 3,2 9,0 4 2 6 4 N 60 0,0
06.12.2019 14:00:00 11,5 -3,5 3,1 9,0 0 0 5 3 N 60 0,0
06.12.2019 13:00:00 8,5 -4,0 3,0 9,0 3 2 6 3 NE 60 0,0
06.12.2019 12:00:00 6,7 -3,3 3,1 9,0 4 2 6 3 E 60 0,0
06.12.2019 11:00:00 4,8 -2,8 3,1 9,0 2 1 4 2 NE 60 0,0
06.12.2019 10:00:00 -1,2 -5,2 3,2 9,0 2 1 4 2 ENE 2 0,0
06.12.2019 09:00:00 -1,3 -5,7 3,3 9,0 3 2 6 3 N 0 0,0
06.12.2019 08:00:00 -1,0 -5,4 3,3 9,1 2 1 9 5 WNW 0 0,0
06.12.2019 07:00:00 -1,7 -5,6 3,4 9,1 7 4 9 5 N 0 0,0
06.12.2019 06:00:00 -1,2 -5,4 3,5 9,1 3 2 5 3 N 0 0,0
06.12.2019 05:00:00 -0,6 -4,7 3,6 9,1 0 0 7 4 N 0 0,0
06.12.2019 04:00:00 -0,7 -5,3 3,6 9,1 2 1 6 4 NNE 0 0,0
06.12.2019 03:00:00 -0,5 -5,1 3,7 9,1 4 2 7 4 NNW 0 0,0
06.12.2019 02:00:00 -0,7 -4,6 3,8 9,1 4 2 5 3 N 0 0,0
06.12.2019 01:00:00 -0,3 -4,6 3,9 9,1 3 1 6 3 N 0 0,0
06.12.2019 00:00:00 0,5 -4,7 3,9 9,1 4 2 9 5 NNW 0 0,0
05.12.2019 23:00:00 0,4 -3,0 4,0 9,2 3 1 5 3 NW 0 0,0
05.12.2019 22:00:00 0,9 -3,8 4,1 9,2 2 1 8 4 NW 0 0,0
05.12.2019 21:00:00 1,4 -3,3 4,1 9,2 3 1 7 4 N 0 0,0
05.12.2019 20:00:00 1,5 -2,6 4,2 9,2 2 1 6 3 NNE 0 0,0
05.12.2019 19:00:00 2,1 -1,7 4,2 9,2 5 3 7 4 N 0 0,0
05.12.2019 18:00:00 3,0 -1,6 4,2 9,2 3 2 6 3 WSW 0 0,0
05.12.2019 17:00:00 4,9 -1,6 4,1 9,2 4 2 6 4 NNW 1 0,0
05.12.2019 16:00:00 6,7 -0,3 3,9 9,2 0 0 5 3 N 49 0,0
05.12.2019 15:00:00 9,3 -0,9 3,7 9,2 2 1 9 5 NNW 60 0,0
05.12.2019 14:00:00 9,8 -1,3 3,4 9,2 2 1 9 5 NNE 60 0,0
05.12.2019 13:00:00 9,8 -3,5 3,4 9,2 2 1 8 4 N 60 0,0
05.12.2019 12:00:00 8,3 -1,0 3,4 9,2 5 3 7 4 S 60 0,0
05.12.2019 11:00:00 4,2 -2,0 3,5 9,3 4 2 9 5 NNW 60 0,0
05.12.2019 10:00:00 0,8 -2,8 3,5 9,3 4 2 6 3 NNE 3 0,0
05.12.2019 09:00:00 -0,3 -4,0 3,6 9,3 0 0 8 4 N 0 0,0
05.12.2019 08:00:00 -0,5 -4,6 3,6 9,3 4 2 9 5 NE 0 0,0
05.12.2019 07:00:00 -0,2 -4,1 3,7 9,3 2 1 8 4 NNW 0 0,0
05.12.2019 06:00:00 -0,8 -4,0 3,8 9,3 4 2 9 5 N 0 0,0
05.12.2019 05:00:00 -0,7 -3,9 3,9 9,4 4 2 8 5 N 0 0,0
05.12.2019 04:00:00 -0,1 -4,2 3,9 9,4 4 2 8 4 N 0 0,0
05.12.2019 03:00:00 -0,5 -3,7 4,0 9,4 4 2 8 5 N 0 0,0
05.12.2019 02:00:00 -0,3 -3,3 4,1 9,4 4 2 7 4 NNW 0 0,0
05.12.2019 01:00:00 0,3 -2,7 4,2 9,4 4 2 9 5 NW 0 0,0
05.12.2019 00:00:00 0,1 -2,3 4,3 9,4 3 2 10 6 N 0 0,0
04.12.2019 23:00:00 0,5 -2,2 4,3 9,4 5 3 11 6 SW 0 0,0
04.12.2019 22:00:00 1,4 -2,0 4,4 9,4 5 3 14 7 NNW 0 0,0
04.12.2019 21:00:00 1,5 -1,4 4,4 9,4 5 3 14 8 S 0 0,0
04.12.2019 20:00:00 2,9 -2,4 4,4 9,4 7 4 16 9 SSW 0 0,0
04.12.2019 19:00:00 3,6 -2,6 4,5 9,5 4 2 19 10 SW 0 0,0
04.12.2019 18:00:00 3,0 -1,0 4,5 9,5 8 4 21 11 SSW 0 0,0
04.12.2019 17:00:00 3,8 -1,2 4,4 9,5 7 4 24 13 SW 1 0,0
04.12.2019 16:00:00 5,7 -2,4 4,3 9,5 8 5 22 12 SSW 21 0,0
04.12.2019 15:00:00 5,6 -1,8 4,0 9,5 11 6 23 12 SSW 28 0,0
04.12.2019 14:00:00 9,6 -0,3 3,9 9,5 12 6 26 14 SSW 60 0,0
04.12.2019 13:00:00 8,2 -0,3 3,8 9,5 15 8 24 13 SSW 60 0,0
04.12.2019 12:00:00 6,3 -0,2 3,9 9,5 5 3 12 7 S 60 0,2
04.12.2019 11:00:00 1,8 -0,9 3,9 9,5 4 2 8 5 ENE 60 0,0
04.12.2019 10:00:00 -1,9 -2,3 4,0 9,5 3 2 7 4 NNW 5 0,0
04.12.2019 09:00:00 -2,7 -3,8 4,1 9,5 0 0 10 5 N 0 0,0
04.12.2019 08:00:00 -3,0 -4,0 4,2 9,6 6 3 10 6 NNE 0 0,0
04.12.2019 07:00:00 -3,2 -4,2 4,3 9,5 2 1 8 5 NNW 0 0,0
04.12.2019 06:00:00 -3,1 -3,9 4,4 9,6 4 2 8 4 N 0 0,0
04.12.2019 05:00:00 -3,2 -4,2 4,5 9,5 2 1 5 3 N 0 0,0
04.12.2019 04:00:00 -2,8 -3,9 4,7 9,6 0 0 6 4 N 0 0,0
04.12.2019 03:00:00 -2,5 -3,6 4,8 9,6 0 0 8 4 N 0 0,0
04.12.2019 02:00:00 -2,5 -3,5 4,9 9,6 4 2 8 4 N 0 0,0
04.12.2019 01:00:00 -2,3 -3,1 5,0 9,6 2 1 7 4 N 0 0,0
04.12.2019 00:00:00 -2,2 -3,0 5,2 9,6 3 2 8 4 N 0 0,0
03.12.2019 23:00:00 -1,7 -2,5 5,3 9,6 0 0 5 3 N 0 0,0
03.12.2019 22:00:00 -1,2 -1,9 5,5 9,6 3 2 7 4 NNW 0 0,0
03.12.2019 21:00:00 -1,1 -1,9 5,6 9,6 0 0 6 3 N 0 0,0
03.12.2019 20:00:00 -0,6 -1,6 5,7 9,6 0 0 5 3 N 0 0,0
03.12.2019 19:00:00 0,0 -1,0 5,7 9,6 3 2 6 4 NW 0 0,0
03.12.2019 18:00:00 0,7 -0,9 5,7 9,6 0 0 5 3 N 0 0,0
03.12.2019 17:00:00 1,9 -0,2 5,7 9,6 3 2 8 4 NNW 0 0,0
03.12.2019 16:00:00 3,6 0,1 5,5 9,6 4 2 8 4 WNW 49 0,0
03.12.2019 15:00:00 5,4 -0,7 5,3 9,6 4 2 16 9 NNW 60 0,0
03.12.2019 14:00:00 7,5 0,2 5,0 9,6 3 2 9 5 SW 60 0,0
03.12.2019 13:00:00 6,8 -0,9 4,9 9,6 3 2 9 5 E 60 0,0

tt = Température de l'air
td = dewpoint
tt -20cm = Température de l'air -20cm
tt -100cm = Température de l'air -100cm
ff = Vitesse du vent
fx = gusts
dd = Direction du vent
sd = Ensoleillement
rr = Quantités de précipitations

stations d'obs. à proximité